Time;durP1;ratioP1;P1;durP2;ratioP2;P2;SDS_P1;SDS_P2;PMS_P1;PMS_P2;Temp;Humidity;BMP_temperature;BMP_pressure;BME280_temperature;BME280_humidity;BME280_pressure;Samples;Min_cycle;Max_cycle;Signal;HPM_P1;HPM_P2
2023/06/06 00:02:33;;;;;;;10.20;5.78;;;;;;;8.53;100.00;102304.91;6247958;22;20917;-78
2023/06/06 00:05:17;;;;;;;11.35;5.47;;;;;;;8.52;100.00;102300.53;6301118;22;20068;-78
2023/06/06 00:08:01;;;;;;;10.52;5.38;;;;;;;8.51;100.00;102294.38;6278703;22;20046;-78
2023/06/06 00:10:46;;;;;;;10.88;5.15;;;;;;;8.50;100.00;102300.50;6277011;22;20073;-76
2023/06/06 00:13:31;;;;;;;9.35;4.97;;;;;;;8.49;100.00;102298.75;6300235;22;20034;-78
2023/06/06 00:16:16;;;;;;;7.75;5.00;;;;;;;8.50;100.00;102291.72;6303276;22;20421;-79
2023/06/06 00:19:02;;;;;;;10.43;4.95;;;;;;;8.49;100.00;102290.84;6280300;22;20141;-78
2023/06/06 00:21:46;;;;;;;10.30;5.90;;;;;;;8.50;100.00;102294.38;6269752;22;20014;-77
2023/06/06 00:24:31;;;;;;;13.43;5.28;;;;;;;8.50;100.00;102291.72;6291705;22;20026;-77
2023/06/06 00:27:18;;;;;;;9.35;5.40;;;;;;;8.49;100.00;102301.41;6300332;22;20064;-78
2023/06/06 00:30:04;;;;;;;9.73;5.40;;;;;;;8.50;100.00;102302.28;6302528;22;20033;-79
2023/06/06 00:32:48;;;;;;;8.77;5.53;;;;;;;8.50;100.00;102303.16;6303355;22;20458;-79
2023/06/06 00:35:32;;;;;;;9.90;5.57;;;;;;;8.50;100.00;102300.50;6303090;22;20545;-79
2023/06/06 00:38:16;;;;;;;10.40;4.75;;;;;;;8.49;100.00;102304.03;6301127;22;20090;-79
2023/06/06 00:41:00;;;;;;;11.98;5.35;;;;;;;8.49;100.00;102304.03;6303261;22;20029;-78
2023/06/06 00:43:44;;;;;;;12.38;5.35;;;;;;;8.48;100.00;102304.94;6302010;22;20014;-79
2023/06/06 00:46:29;;;;;;;13.90;5.35;;;;;;;8.49;100.00;102303.19;6278754;22;20030;-79
2023/06/06 00:49:14;;;;;;;11.18;4.88;;;;;;;8.47;100.00;102308.47;6269504;22;20026;-79
2023/06/06 00:52:00;;;;;;;7.07;4.82;;;;;;;8.47;100.00;102302.31;6270653;22;20839;-78
2023/06/06 00:54:44;;;;;;;7.60;5.15;;;;;;;8.45;100.00;102307.63;6246942;22;20509;-79
2023/06/06 00:57:29;;;;;;;10.82;5.35;;;;;;;8.44;100.00;102305.88;6267132;22;20542;-79
2023/06/06 01:00:15;;;;;;;10.63;5.07;;;;;;;8.44;100.00;102305.88;6302829;22;20041;-77
2023/06/06 01:03:03;;;;;;;9.52;5.15;;;;;;;8.43;100.00;102306.75;6267718;22;20061;-79
2023/06/06 01:05:48;;;;;;;10.40;4.70;;;;;;;8.43;100.00;102302.38;6301961;22;20137;-79
2023/06/06 01:08:32;;;;;;;8.95;4.85;;;;;;;8.44;100.00;102300.59;6302035;22;20425;-78
2023/06/06 01:11:29;;;;;;;11.27;5.28;;;;;;;8.45;100.00;102310.28;6302095;22;20034;-77
2023/06/06 01:14:21;;;;;;;10.98;5.00;;;;;;;8.43;100.00;102312.03;6292954;22;20336;-79
2023/06/06 01:17:07;;;;;;;8.53;4.47;;;;;;;8.43;100.00;102312.94;6281305;22;20394;-78
2023/06/06 01:19:54;;;;;;;11.00;4.93;;;;;;;8.42;100.00;102312.94;6249062;22;20498;-78
2023/06/06 01:22:38;;;;;;;8.13;4.90;;;;;;;8.42;100.00;102316.47;6279758;22;20018;-78
2023/06/06 01:25:23;;;;;;;10.32;4.80;;;;;;;8.42;100.00;102312.94;6270495;22;20481;-78
2023/06/06 01:28:12;;;;;;;7.93;4.40;;;;;;;8.43;100.00;102312.03;6270927;22;20069;-79
2023/06/06 01:32:24;;;;;;;10.90;4.88;;;;;;;8.44;100.00;102305.88;6298091;22;20061;-79
2023/06/06 01:39:07;;;;;;;9.45;4.47;;;;;;;8.39;100.00;102311.22;6273508;22;20050;-79
2023/06/06 01:41:55;;;;;;;10.25;4.35;;;;;;;8.39;100.00;102310.34;6218209;22;20079;-78
2023/06/06 01:44:39;;;;;;;10.07;4.03;;;;;;;8.39;100.00;102315.63;6239237;22;20038;-78
2023/06/06 01:47:24;;;;;;;8.27;4.40;;;;;;;8.39;100.00;102307.72;6218674;22;20062;-79
2023/06/06 01:50:09;;;;;;;10.35;4.63;;;;;;;8.41;100.00;102313.84;6225479;22;20490;-78
2023/06/06 01:52:54;;;;;;;9.80;4.35;;;;;;;8.42;100.00;102318.22;6216370;22;20386;-77
2023/06/06 01:55:38;;;;;;;7.50;4.30;;;;;;;8.43;100.00;102312.03;6249436;22;20081;-77
2023/06/06 01:58:22;;;;;;;8.20;4.65;;;;;;;8.44;100.00;102313.78;6249408;22;20123;-77
2023/06/06 02:01:07;;;;;;;9.48;4.57;;;;;;;8.47;100.00;102312.88;6272525;22;20111;-77
2023/06/06 02:03:51;;;;;;;9.50;4.68;;;;;;;8.49;100.00;102308.47;6249417;22;20073;-79
2023/06/06 02:06:36;;;;;;;12.68;4.88;;;;;;;8.51;100.00;102309.31;6272553;22;20026;-78
2023/06/06 02:09:20;;;;;;;12.55;5.28;;;;;;;8.54;100.00;102306.66;6249074;22;20340;-78
2023/06/06 02:12:07;;;;;;;11.98;5.45;;;;;;;8.57;100.00;102309.25;6273002;22;20157;-78
2023/06/06 02:14:54;;;;;;;10.85;5.57;;;;;;;8.60;100.00;102306.56;6271574;22;20714;-78
2023/06/06 02:17:38;;;;;;;9.95;5.53;;;;;;;8.64;100.00;102316.22;6261280;22;20022;-76
2023/06/06 02:20:22;;;;;;;10.60;5.68;;;;;;;8.68;100.00;102306.47;6269758;22;20015;-77
2023/06/06 02:23:06;;;;;;;13.15;5.65;;;;;;;8.71;100.00;102306.41;6272117;22;20026;-78
2023/06/06 02:25:50;;;;;;;11.32;5.47;;;;;;;8.74;100.00;102302.88;6273001;22;20018;-79
2023/06/06 02:28:35;;;;;;;11.57;4.82;;;;;;;8.77;100.00;102305.47;6261513;22;20483;-78
2023/06/06 02:31:21;;;;;;;9.45;5.10;;;;;;;8.79;100.00;102301.91;6272056;22;20022;-78
2023/06/06 02:34:05;;;;;;;9.57;5.70;;;;;;;8.82;100.00;102293.94;6262112;22;20030;-78
2023/06/06 02:36:49;;;;;;;12.40;5.82;;;;;;;8.87;100.00;102296.50;6228003;22;20019;-78
2023/06/06 02:39:34;;;;;;;9.23;5.13;;;;;;;8.90;100.00;102290.31;6272582;22;20554;-79
2023/06/06 02:42:18;;;;;;;9.98;5.65;;;;;;;8.91;100.00;102292.06;6248217;22;20030;-78
2023/06/06 02:45:03;;;;;;;7.75;5.30;;;;;;;8.90;100.00;102285.91;6248099;22;20078;-79
2023/06/06 02:47:47;;;;;;;9.35;5.22;;;;;;;8.91;100.00;102289.41;6261705;22;20018;-79
2023/06/06 02:50:31;;;;;;;10.80;6.13;;;;;;;8.92;100.00;102283.22;6268918;22;20034;-79
2023/06/06 02:53:15;;;;;;;11.15;5.55;;;;;;;8.93;100.00;102277.06;6248315;22;20018;-78
2023/06/06 02:56:00;;;;;;;8.70;5.72;;;;;;;8.93;100.00;102283.22;6247196;22;20035;-78
2023/06/06 02:58:44;;;;;;;9.75;5.13;;;;;;;8.94;100.00;102278.81;6239310;22;20014;-79
2023/06/06 03:01:30;;;;;;;10.90;5.57;;;;;;;8.95;100.00;102289.34;6248988;22;20469;-78
2023/06/06 03:04:16;;;;;;;10.80;5.45;;;;;;;8.94;100.00;102287.59;6270945;22;20019;-78
2023/06/06 03:07:01;;;;;;;8.73;5.35;;;;;;;8.94;100.00;102284.09;6239507;22;20027;-78
2023/06/06 03:09:45;;;;;;;8.82;5.43;;;;;;;8.91;100.00;102282.38;6248801;22;20069;-77
2023/06/06 03:12:29;;;;;;;15.32;6.00;;;;;;;8.91;100.00;102285.00;6270531;22;20421;-81
2023/06/06 03:15:13;;;;;;;11.18;5.45;;;;;;;8.90;100.00;102285.03;6237488;22;20217;-78
2023/06/06 03:17:57;;;;;;;11.80;5.72;;;;;;;8.87;100.00;102280.66;6249469;22;20165;-79
2023/06/06 03:20:44;;;;;;;9.48;4.93;;;;;;;8.86;100.00;102281.56;6268746;22;20018;-79
2023/06/06 03:23:29;;;;;;;9.13;5.10;;;;;;;8.84;100.00;102286.00;6248195;22;20093;-79
2023/06/06 03:26:13;;;;;;;8.20;4.55;;;;;;;8.85;100.00;102293.03;6258344;22;20018;-79
2023/06/06 03:28:58;;;;;;;10.00;4.97;;;;;;;8.85;100.00;102289.50;6270055;22;20026;-77
2023/06/06 03:31:44;;;;;;;8.50;5.00;;;;;;;8.85;100.00;102292.13;6272392;22;20348;-77
2023/06/06 03:34:28;;;;;;;8.15;5.10;;;;;;;8.84;100.00;102280.72;6271740;22;20138;-78
2023/06/06 03:37:12;;;;;;;12.52;4.82;;;;;;;8.85;100.00;102281.56;6248951;22;20046;-78
2023/06/06 03:39:56;;;;;;;9.23;5.25;;;;;;;8.85;100.00;102292.13;6271295;22;20406;-78
2023/06/06 03:42:40;;;;;;;8.88;4.80;;;;;;;8.83;100.00;102277.19;6270246;22;20014;-78
2023/06/06 03:45:24;;;;;;;10.80;5.10;;;;;;;8.85;100.00;102276.28;6247801;22;20032;-79
2023/06/06 03:48:09;;;;;;;13.00;5.93;;;;;;;8.86;100.00;102285.97;6249026;22;20019;-78
2023/06/06 03:50:53;;;;;;;9.57;5.65;;;;;;;8.87;100.00;102285.09;6266347;22;20035;-79
2023/06/06 03:53:37;;;;;;;10.63;5.72;;;;;;;8.87;100.00;102283.31;6248665;22;20062;-79
2023/06/06 03:56:23;;;;;;;10.82;6.05;;;;;;;8.88;100.00;102279.75;6248693;22;20550;-78
2023/06/06 03:59:11;;;;;;;10.85;5.63;;;;;;;8.89;100.00;102285.94;6271402;22;20081;-79
2023/06/06 04:01:55;;;;;;;10.00;5.28;;;;;;;8.90;100.00;102282.38;6237652;22;20034;-79
2023/06/06 04:04:40;;;;;;;13.82;5.93;;;;;;;8.92;100.00;102283.22;6270104;22;20050;-78
2023/06/06 04:07:28;;;;;;;10.50;5.40;;;;;;;8.93;100.00;102290.28;6239323;22;20058;-78
2023/06/06 04:10:12;;;;;;;12.07;5.57;;;;;;;8.95;100.00;102284.03;6249320;22;20077;-77
2023/06/06 04:12:56;;;;;;;12.82;5.25;;;;;;;8.99;100.00;102284.03;6247786;22;20047;-77
2023/06/06 04:15:40;;;;;;;9.98;5.57;;;;;;;9.02;100.00;102284.84;6248606;22;20034;-77
2023/06/06 04:18:24;;;;;;;12.50;5.90;;;;;;;9.04;100.00;102277.75;6271348;22;20030;-78
2023/06/06 04:21:07;;;;;;;12.32;6.05;;;;;;;9.09;100.00;102281.19;6217476;22;20312;-79
2023/06/06 04:23:53;;;;;;;13.90;5.35;;;;;;;9.14;100.00;102277.63;6271538;22;20077;-78
2023/06/06 04:26:37;;;;;;;13.68;6.18;;;;;;;9.18;100.00;102279.28;6248082;22;20018;-78
2023/06/06 04:29:21;;;;;;;11.05;5.55;;;;;;;9.23;100.00;102282.75;6248444;22;20026;-79
2023/06/06 04:32:07;;;;;;;8.57;4.80;;;;;;;9.26;100.00;102282.69;6271750;22;20018;-78
2023/06/06 04:34:57;;;;;;;10.75;5.40;;;;;;;9.29;100.00;102284.41;6196436;22;20198;-79
2023/06/06 04:37:41;;;;;;;12.65;5.07;;;;;;;9.35;100.00;102282.53;6270101;22;20403;-79
2023/06/06 04:40:32;;;;;;;9.38;4.70;;;;;;;9.40;100.00;102284.22;6237717;22;20124;-79
2023/06/06 04:43:23;;;;;;;11.75;5.03;;;;;;;9.46;100.00;102284.09;6252884;22;20770;-77
2023/06/06 04:46:06;;;;;;;11.32;5.53;;;;;;;9.54;100.00;102276.03;6264329;22;20026;-78
2023/06/06 04:48:54;;;;;;;7.70;4.60;;;;;;;9.62;100.00;102276.78;6274556;22;20094;-79
2023/06/06 04:51:40;;;;;;;9.57;5.10;;;;;;;9.69;100.00;102280.19;6245006;22;20089;-78
2023/06/06 04:54:24;;;;;;;8.18;4.65;;;;;;;9.75;100.00;102275.66;6242066;22;20065;-78
2023/06/06 04:57:14;;;;;;;14.70;5.35;;;;;;;9.85;100.00;102281.63;6275154;22;20105;-78
2023/06/06 04:59:59;;;;;;;8.52;5.07;;;;;;;9.95;100.00;102281.44;6264407;22;20019;-78
2023/06/06 05:02:43;;;;;;;8.93;5.40;;;;;;;10.05;100.00;102283.00;6241811;22;20107;-78
2023/06/06 05:05:28;;;;;;;12.48;5.40;;;;;;;10.16;100.00;102286.31;6274893;22;20076;-77
2023/06/06 05:08:12;;;;;;;10.02;5.03;;;;;;;10.28;100.00;102289.59;6274507;22;20364;-78
2023/06/06 05:10:56;;;;;;;14.52;5.25;;;;;;;10.38;100.00;102288.50;6274134;22;20018;-78
2023/06/06 05:13:40;;;;;;;9.65;4.90;;;;;;;10.51;100.00;102288.28;6273944;22;20101;-78
2023/06/06 05:16:25;;;;;;;11.95;4.97;;;;;;;10.60;100.00;102290.72;6274628;22;20085;-78
2023/06/06 05:19:09;;;;;;;6.68;4.57;;;;;;;10.71;100.00;102288.69;6265086;22;20081;-78
2023/06/06 05:21:53;;;;;;;10.05;4.85;;;;;;;10.88;100.00;102292.72;6266504;22;20018;-80
2023/06/06 05:24:37;;;;;;;10.40;5.05;;;;;;;11.06;100.00;102293.19;6274734;22;20027;-78
2023/06/06 05:27:21;;;;;;;7.40;4.32;;;;;;;11.21;100.00;102295.47;6275369;22;20749;-78
2023/06/06 05:30:05;;;;;;;10.80;4.63;;;;;;;11.36;100.00;102295.97;6262928;22;20046;-77
2023/06/06 05:32:49;;;;;;;9.55;4.18;;;;;;;11.46;100.00;102292.19;6242214;22;20454;-77
2023/06/06 05:35:33;;;;;;;7.97;4.65;;;;;;;11.64;100.00;102293.47;6241503;22;20031;-77
2023/06/06 05:38:18;;;;;;;11.27;4.28;;;;;;;11.84;100.00;102292.06;6274028;22;20782;-77
2023/06/06 05:41:02;;;;;;;7.80;4.18;;;;;;;11.95;100.00;102294.44;6272671;22;20079;-77
2023/06/06 05:43:53;;;;;;;6.70;4.22;;;;;;;12.09;100.00;102297.59;6218787;22;20022;-77
2023/06/06 05:46:37;;;;;;;5.88;3.67;;;;;;;12.20;100.00;102302.59;6271314;22;20106;-77
2023/06/06 05:49:22;;;;;;;6.22;3.38;;;;;;;12.32;100.00;102298.69;6273558;22;20477;-79
2023/06/06 05:52:06;;;;;;;7.00;3.90;;;;;;;12.38;100.00;102291.47;6240180;22;20057;-77
2023/06/06 05:55:03;;;;;;;6.22;3.90;;;;;;;12.43;100.00;102289.53;6272547;22;20073;-79
2023/06/06 05:57:47;;;;;;;7.78;3.60;;;;;;;12.53;100.00;102292.78;6271790;22;20022;-79
2023/06/06 06:00:33;;;;;;;7.65;3.40;;;;;;;12.68;100.00;102299.44;6271992;22;20130;-78
2023/06/06 06:03:17;;;;;;;8.30;4.15;;;;;;;12.74;100.00;102299.22;6218502;22;20026;-78
2023/06/06 06:06:05;;;;;;;7.93;3.85;;;;;;;12.77;100.00;102294.66;6273094;22;20021;-78
2023/06/06 06:08:50;;;;;;;6.15;3.88;;;;;;;12.87;100.00;102289.94;6218552;22;20030;-79
2023/06/06 06:11:34;;;;;;;8.18;3.80;;;;;;;12.91;100.00;102301.34;6272892;22;20027;-78
2023/06/06 06:14:17;;;;;;;4.50;3.13;;;;;;;12.90;100.00;102299.59;6274360;22;20078;-78
2023/06/06 06:17:01;;;;;;;7.80;3.72;;;;;;;12.99;100.00;102293.13;6249607;22;20073;-81
2023/06/06 06:19:46;;;;;;;7.15;3.60;;;;;;;13.11;100.00;102297.16;6273307;22;20054;-76
2023/06/06 06:22:30;;;;;;;8.15;3.55;;;;;;;13.20;100.00;102290.66;6217886;22;20022;-81
2023/06/06 06:25:16;;;;;;;5.50;3.63;;;;;;;13.25;100.00;102286.06;6273832;22;20142;-81
2023/06/06 06:28:02;;;;;;;7.88;3.42;;;;;;;13.44;100.00;102303.16;6219103;22;20014;-78
2023/06/06 06:30:45;;;;;;;5.55;3.30;;;;;;;13.55;100.00;102296.59;6217913;22;20027;-79
2023/06/06 06:33:33;;;;;;;7.88;3.88;;;;;;;13.66;100.00;102299.75;6249707;22;20113;-80
2023/06/06 06:36:17;;;;;;;6.07;3.60;;;;;;;13.78;100.00;102292.28;6240288;22;20055;-79
2023/06/06 06:39:01;;;;;;;5.07;3.28;;;;;;;13.79;100.00;102294.00;6239785;22;20113;-77
2023/06/06 06:41:46;;;;;;;5.43;3.42;;;;;;;13.81;100.00;102305.47;6239323;22;20030;-77
2023/06/06 06:44:30;;;;;;;7.18;3.30;;;;;;;13.94;100.00;102308.56;6248767;22;20018;-78
2023/06/06 06:47:14;;;;;;;5.15;3.28;;;;;;;13.92;100.00;102305.94;6272137;22;20085;-76
2023/06/06 06:49:59;;;;;;;6.78;3.20;;;;;;;13.95;100.00;102310.31;6249189;22;20062;-79
2023/06/06 06:52:43;;;;;;;6.50;3.28;;;;;;;14.01;100.00;102302.09;6240980;22;20076;-78
2023/06/06 06:55:27;;;;;;;6.60;3.70;;;;;;;14.08;100.00;102300.94;6239114;22;20069;-78
2023/06/06 06:58:22;;;;;;;5.78;3.40;;;;;;;14.25;100.00;102302.97;6271300;22;20477;-80
2023/06/06 07:01:06;;;;;;;5.05;3.08;;;;;;;14.34;100.00;102300.88;6239892;22;20018;-78
2023/06/06 07:03:51;;;;;;;5.53;3.03;;;;;;;14.37;100.00;102308.72;6240819;22;20031;-80
2023/06/06 07:06:36;;;;;;;8.25;3.08;;;;;;;14.40;100.00;102306.81;6241195;22;20019;-84
2023/06/06 07:09:21;;;;;;;4.70;3.10;;;;;;;14.61;100.00;102303.41;6222182;22;20026;-87
2023/06/06 07:12:07;;;;;;;5.47;3.10;;;;;;;14.70;100.00;102311.00;6253409;22;20030;-86
2023/06/06 07:14:51;;;;;;;8.43;3.15;;;;;;;14.74;100.00;102301.13;6244241;22;20050;-86
2023/06/06 07:17:35;;;;;;;5.05;2.90;;;;;;;14.83;100.00;102310.56;6202344;22;20014;-85
2023/06/06 07:20:22;;;;;;;6.53;3.38;;;;;;;14.86;100.00;102311.31;6222352;22;20033;-86
2023/06/06 07:23:06;;;;;;;5.22;2.85;;;;;;;14.92;100.00;102302.19;6201965;22;20150;-83
2023/06/06 07:25:51;;;;;;;5.20;3.03;;;;;;;15.03;100.00;102297.28;6275300;22;20559;-87
2023/06/06 07:28:35;;;;;;;8.13;3.20;;;;;;;15.21;100.00;102297.47;6221698;22;20068;-87
2023/06/06 07:31:20;;;;;;;5.50;3.22;;;;;;;15.23;100.00;102298.25;6278396;22;20031;-82
2023/06/06 07:34:04;;;;;;;5.30;3.50;;;;;;;15.33;100.00;102301.41;6244343;22;20073;-85
2023/06/06 07:36:49;;;;;;;8.07;3.83;;;;;;;15.33;100.00;102299.63;6255552;22;20052;-85
2023/06/06 07:39:33;;;;;;;4.72;3.40;;;;;;;15.47;100.00;102298.13;6241190;22;20081;-85
2023/06/06 07:42:20;;;;;;;5.38;3.20;;;;;;;15.55;100.00;102296.00;6252686;22;20030;-84
2023/06/06 07:45:04;;;;;;;4.90;3.28;;;;;;;15.60;100.00;102303.81;6220778;22;20014;-83
2023/06/06 07:47:48;;;;;;;6.97;3.28;;;;;;;15.55;100.00;102304.03;6262998;22;20132;-79
2023/06/06 07:50:32;;;;;;;4.30;3.20;;;;;;;15.62;100.00;102307.28;6270097;22;20296;-81
2023/06/06 07:53:17;;;;;;;6.00;3.58;;;;;;;15.78;100.00;102296.78;6251056;22;20085;-80
2023/06/06 07:56:00;;;;;;;6.13;3.58;;;;;;;15.86;100.00;102299.97;6237746;22;20015;-80
2023/06/06 07:58:52;;;;;;;5.78;3.22;;;;;;;15.98;100.00;102297.75;6272681;22;20107;-84
2023/06/06 08:01:37;;;;;;;5.63;3.10;;;;;;;16.18;100.00;102307.50;6241959;22;20744;-89
2023/06/06 08:04:21;;;;;;;5.78;3.35;;;;;;;16.13;99.16;102296.19;6251613;22;20047;-84
2023/06/06 08:07:04;;;;;;;4.10;3.17;;;;;;;16.17;100.00;102299.56;6251432;22;20538;-84
2023/06/06 08:09:48;;;;;;;4.68;3.42;;;;;;;16.23;97.85;102296.63;6251527;22;20049;-85
2023/06/06 08:12:33;;;;;;;6.78;3.20;;;;;;;16.32;99.65;102301.53;6251049;22;20096;-86
2023/06/06 08:15:16;;;;;;;6.95;3.40;;;;;;;16.49;99.70;102310.53;6274424;22;20513;-84
2023/06/06 08:18:00;;;;;;;6.63;3.30;;;;;;;16.56;98.40;102303.97;6277394;22;20030;-84
2023/06/06 08:20:44;;;;;;;5.40;3.20;;;;;;;16.59;98.95;102301.16;6271577;22;20029;-88
2023/06/06 08:23:28;;;;;;;7.20;3.40;;;;;;;16.61;95.42;102304.63;6222001;22;20014;-83
2023/06/06 08:26:12;;;;;;;5.45;3.40;;;;;;;16.61;98.40;102307.28;6255387;22;20026;-83
2023/06/06 08:28:56;;;;;;;5.55;3.03;;;;;;;16.61;96.47;102306.44;6277735;22;20018;-83
2023/06/06 08:31:41;;;;;;;6.95;3.58;;;;;;;16.50;96.07;102305.13;6275380;22;20080;-82
2023/06/06 08:34:26;;;;;;;4.30;3.10;;;;;;;16.39;95.38;102308.31;6252615;22;20358;-86
2023/06/06 08:37:10;;;;;;;5.95;3.55;;;;;;;16.49;96.72;102315.88;6231405;22;20088;-82
2023/06/06 08:39:54;;;;;;;5.85;3.42;;;;;;;16.50;95.66;102309.63;6233792;22;20018;-84
2023/06/06 08:42:43;;;;;;;6.90;3.50;;;;;;;16.56;96.34;102298.63;6241220;22;20029;-83
2023/06/06 08:45:27;;;;;;;9.10;3.95;;;;;;;16.45;91.21;102299.13;6220564;22;20075;-80
2023/06/06 08:48:13;;;;;;;7.30;3.45;;;;;;;16.24;95.02;102304.53;6250815;22;20023;-76
2023/06/06 08:50:58;;;;;;;6.03;3.10;;;;;;;16.20;94.73;102307.44;6247430;22;20089;-76
2023/06/06 08:53:43;;;;;;;6.50;3.80;;;;;;;16.19;96.86;102308.38;6250209;22;20026;-77
2023/06/06 08:56:28;;;;;;;7.07;3.63;;;;;;;16.38;98.39;102305.69;6274976;22;20018;-76
2023/06/06 08:59:13;;;;;;;6.65;3.60;;;;;;;16.64;98.36;102311.63;6239094;22;20050;-77
2023/06/06 09:01:57;;;;;;;8.45;4.35;;;;;;;16.62;96.26;102303.66;6272754;22;20108;-75
2023/06/06 09:04:42;;;;;;;5.68;3.38;;;;;;;16.63;96.93;102302.75;6249703;22;20031;-77
2023/06/06 09:07:28;;;;;;;5.90;3.88;;;;;;;16.69;96.91;102297.09;6249745;22;20065;-77
2023/06/06 09:10:14;;;;;;;5.03;3.70;;;;;;;16.75;93.06;102311.09;6251606;22;20026;-82
2023/06/06 09:12:58;;;;;;;6.80;4.43;;;;;;;16.60;94.34;102304.72;6219695;22;20030;-77
2023/06/06 09:15:45;;;;;;;4.45;3.45;;;;;;;16.59;94.70;102303.84;6239212;22;20058;-78
2023/06/06 09:18:29;;;;;;;5.28;3.50;;;;;;;16.77;95.63;102311.91;6218205;22;20018;-75
2023/06/06 09:21:13;;;;;;;6.05;3.50;;;;;;;16.80;94.23;102295.72;6239813;22;20104;-80
2023/06/06 09:23:57;;;;;;;4.65;3.25;;;;;;;16.80;94.63;102301.06;6238488;22;20018;-76
2023/06/06 09:26:41;;;;;;;5.32;3.85;;;;;;;16.81;92.91;102303.66;6272919;22;20084;-76
2023/06/06 09:29:25;;;;;;;5.63;3.20;;;;;;;16.94;93.17;102295.88;6218067;22;20095;-77
2023/06/06 09:32:11;;;;;;;5.78;3.70;;;;;;;17.03;90.70;102301.75;6238482;22;20077;-76
2023/06/06 09:35:03;;;;;;;4.57;3.25;;;;;;;17.01;89.60;102295.59;6239001;22;20046;-75
2023/06/06 09:37:48;;;;;;;4.20;3.30;;;;;;;16.99;89.88;102300.16;6228084;22;20026;-77
2023/06/06 09:40:33;;;;;;;6.55;3.72;;;;;;;16.97;89.96;102294.88;6272664;22;20757;-79
2023/06/06 09:43:24;;;;;;;4.90;3.47;;;;;;;16.94;89.37;102301.25;6272998;22;20482;-78
2023/06/06 09:46:09;;;;;;;8.68;4.38;;;;;;;16.96;90.30;102291.31;6225143;22;20023;-77
2023/06/06 10:01:40;;;;;;;9.00;4.22;;;;;;;16.80;88.27;102301.06;6221297;23;20305;-84
2023/06/06 10:04:29;;;;;;;6.47;3.88;;;;;;;16.93;89.65;102295.97;6230437;23;20022;-81
2023/06/06 10:07:14;;;;;;;5.18;3.90;;;;;;;17.01;86.59;102304.50;6191164;23;20091;-86
2023/06/06 10:10:01;;;;;;;8.43;4.07;;;;;;;17.00;88.91;102293.88;6219556;23;20027;-83
2023/06/06 10:12:45;;;;;;;7.30;4.15;;;;;;;17.19;88.60;102296.50;6224076;23;20078;-84
2023/06/06 10:16:02;;;;;;;5.82;3.75;;;;;;;17.19;86.45;102299.19;6219635;23;20082;-84
2023/06/06 10:18:50;;;;;;;6.15;4.00;;;;;;;17.14;85.88;102299.41;6216273;23;20020;-82
2023/06/06 10:21:37;;;;;;;5.50;3.60;;;;;;;17.12;87.02;102295.09;6208267;23;20032;-79
2023/06/06 10:24:21;;;;;;;6.70;4.00;;;;;;;16.93;86.27;102299.50;6229778;22;20000;-77
2023/06/06 10:27:14;;;;;;;5.88;3.95;;;;;;;16.97;88.56;102295.75;6217068;23;20028;-77
2023/06/06 10:30:09;;;;;;;8.63;4.32;;;;;;;17.12;88.03;102295.97;6218247;23;20394;-78
2023/06/06 10:33:23;;;;;;;7.07;4.05;;;;;;;17.21;86.97;102298.16;6207546;23;20503;-77
2023/06/06 10:36:08;;;;;;;;;;;;;;;17.27;86.98;102298.81;6210370;23;20407;-80
2023/06/06 10:39:24;;;;;;;7.07;4.03;;;;;;;17.21;87.53;102294.63;6187933;23;20005;-77
2023/06/06 10:42:08;;;;;;;6.35;4.28;;;;;;;17.21;88.57;102295.47;6219963;23;20281;-78
2023/06/06 10:44:55;;;;;;;8.13;4.35;;;;;;;17.10;88.08;102298.72;6233497;23;20404;-77
2023/06/06 10:47:44;;;;;;;9.18;4.30;;;;;;;17.06;89.62;102297.13;6252412;23;20062;-77
2023/06/06 10:50:28;;;;;;;5.85;4.07;;;;;;;17.11;89.11;102299.59;6240608;23;20470;-77
2023/06/06 10:53:16;;;;;;;7.80;4.10;;;;;;;16.95;87.52;102300.28;6230957;23;20015;-76
2023/06/06 10:56:02;;;;;;;7.20;4.30;;;;;;;16.92;88.86;102294.22;6231706;23;20023;-75
2023/06/06 10:58:46;;;;;;;5.72;4.15;;;;;;;16.91;87.40;102298.72;6254689;23;20077;-75
2023/06/06 11:01:35;;;;;;;8.38;5.00;;;;;;;16.70;88.05;102295.28;6251587;23;20015;-76
2023/06/06 11:04:20;;;;;;;7.95;5.10;;;;;;;16.69;88.83;102304.25;6250399;23;20019;-78
2023/06/06 11:07:15;;;;;;;6.82;4.53;;;;;;;16.71;87.87;102302.38;6199286;23;20043;-77
2023/06/06 11:09:59;;;;;;;7.53;4.78;;;;;;;16.78;88.29;102302.94;6249341;23;20016;-76
2023/06/06 11:12:47;;;;;;;10.73;5.30;;;;;;;16.81;89.14;102303.66;6197383;23;20100;-76
2023/06/06 11:15:32;;;;;;;7.53;4.65;;;;;;;16.92;88.27;102305.81;6220549;23;20030;-76
2023/06/06 11:18:37;;;;;;;7.55;4.65;;;;;;;16.91;87.27;102303.19;6251232;23;20026;-77
2023/06/06 11:21:23;;;;;;;8.98;5.00;;;;;;;16.83;88.47;102300.91;6220028;23;20015;-78
2023/06/06 11:24:08;;;;;;;7.95;4.90;;;;;;;16.79;87.98;102300.19;6241944;23;20349;-82
2023/06/06 11:26:52;;;;;;;8.20;4.43;;;;;;;16.84;88.38;102295.47;6251809;23;20104;-77
2023/06/06 11:29:37;;;;;;;9.35;5.22;;;;;;;16.86;87.75;102302.56;6220912;23;20063;-78
2023/06/06 11:32:23;;;;;;;9.88;5.45;;;;;;;16.80;88.32;102298.38;6222531;23;20022;-77
2023/06/06 11:35:08;;;;;;;9.73;5.32;;;;;;;16.82;88.03;102305.41;6222277;23;20078;-77
2023/06/06 11:37:52;;;;;;;8.90;5.13;;;;;;;16.85;86.94;102299.03;6238091;23;20325;-77
2023/06/06 11:40:35;;;;;;;8.23;5.65;;;;;;;16.78;87.93;102302.94;6227608;23;20032;-78
2023/06/06 11:43:19;;;;;;;7.70;5.32;;;;;;;16.77;88.03;102291.38;6253406;23;20011;-76
2023/06/06 11:46:04;;;;;;;9.05;5.45;;;;;;;16.71;88.01;102297.00;6217113;23;20031;-77
2023/06/06 11:48:59;;;;;;;9.77;5.18;;;;;;;16.66;87.64;102294.56;6196910;23;20043;-77
2023/06/06 11:51:53;;;;;;;9.27;5.63;;;;;;;16.62;87.81;102289.44;6250932;23;20035;-78
2023/06/06 11:54:38;;;;;;;9.98;5.70;;;;;;;16.65;90.33;102297.31;6228396;23;20035;-77
2023/06/06 11:57:23;;;;;;;10.38;5.60;;;;;;;16.64;88.87;102291.13;6199540;23;20034;-77
2023/06/06 12:00:18;;;;;;;9.70;6.38;;;;;;;16.63;89.77;102284.03;6249998;23;20775;-78
2023/06/06 12:03:02;;;;;;;7.18;4.70;;;;;;;16.78;89.15;102286.91;6229956;23;20046;-76
2023/06/06 12:05:57;;;;;;;10.82;5.70;;;;;;;16.91;89.80;102287.16;6252733;23;20019;-77
2023/06/06 12:08:42;;;;;;;8.40;5.63;;;;;;;16.93;88.76;102291.50;6217717;23;20030;-78
2023/06/06 12:11:29;;;;;;;9.88;5.60;;;;;;;16.88;88.28;102281.97;6227142;23;20396;-77
2023/06/06 12:14:14;;;;;;;9.85;5.20;;;;;;;16.89;89.52;102294.41;6240202;23;20028;-77
2023/06/06 12:17:03;;;;;;;8.07;5.45;;;;;;;17.03;88.78;102291.94;6249495;23;20022;-77
2023/06/06 12:19:52;;;;;;;11.52;6.13;;;;;;;16.94;89.30;102287.03;6216575;23;20450;-76
2023/06/06 12:22:36;;;;;;;9.38;6.10;;;;;;;16.84;87.75;102291.97;6229230;23;20360;-76
2023/06/06 12:25:28;;;;;;;10.73;5.25;;;;;;;16.77;88.13;102285.19;6249978;23;20027;-76
2023/06/06 12:28:12;;;;;;;10.07;5.40;;;;;;;16.67;89.05;102282.94;6247627;23;20115;-78
2023/06/06 12:30:57;;;;;;;8.95;4.97;;;;;;;16.69;89.64;102288.22;6249588;23;20035;-77
2023/06/06 12:33:45;;;;;;;7.80;4.80;;;;;;;16.68;89.33;102284.66;6250630;23;20015;-77
2023/06/06 12:36:29;;;;;;;8.13;5.00;;;;;;;16.72;90.12;102285.38;6250347;23;20101;-76
2023/06/06 12:39:13;;;;;;;9.10;4.03;;;;;;;16.75;89.16;102279.91;6227227;23;20087;-77
2023/06/06 12:41:57;;;;;;;9.50;4.63;;;;;;;16.76;89.27;102286.97;6225823;23;20027;-76
2023/06/06 12:44:42;;;;;;;6.82;3.92;;;;;;;16.66;88.64;102281.19;6246782;23;20395;-79
2023/06/06 12:47:26;;;;;;;7.88;3.75;;;;;;;16.59;90.32;102278.88;6218670;23;20059;-77
2023/06/06 12:50:11;;;;;;;8.70;3.90;;;;;;;16.66;88.21;102272.31;6238837;23;20023;-77
2023/06/06 12:52:57;;;;;;;5.97;4.03;;;;;;;16.55;89.06;102268.34;6215598;23;20353;-78
2023/06/06 12:55:43;;;;;;;7.18;3.80;;;;;;;16.49;88.63;102273.13;6249208;23;20015;-76
2023/06/06 12:58:27;;;;;;;13.50;5.32;;;;;;;16.53;90.13;102270.25;6249304;23;20094;-78
2023/06/06 13:01:11;;;;;;;7.57;3.70;;;;;;;16.70;90.93;102279.25;6250107;23;20051;-78
2023/06/06 13:03:56;;;;;;;9.02;3.78;;;;;;;16.87;89.56;102283.75;6214947;23;20046;-77
2023/06/06 13:06:41;;;;;;;11.90;4.07;;;;;;;16.86;89.23;102283.84;6218043;23;20089;-76